Kalaupapa, Hawaii
Current Conditions -  °F | °C
As of 12:54 AM on Friday 24 Oct 2014 (Local Time) from PHMK Reporting Station
Light Rain Light Rain  
Wind Chill: 74°   Ceiling: Unl
Heat Index: 74°   Visibility: 10mi
Dew Point: 73°   Wind: 9mph
Humidity: 97%   Direction: 40°NE
Pressure: 30.03"   Gusts: NA
Location:  21.19°N, 156.99°W
Report Text: PHMK 241054Z AUTO 04008KT 10SM -RA FEW018 23/23 A3003 RMK AO2 RAB31 SLP171 P0000 T02330228 TSNO $
Loading
Personal Weather Stations






























Interactive Weather Map
Tropical Storm Tracking
New forecast layout! Learn more

10-Day Weather Forecast

Advertisements
Track Severe Weather on mobile